createdAt,value
2018-07-11T00:00:59.782Z,2.40
2018-07-11T00:03:46.014Z,2.47
2018-07-11T00:06:17.676Z,2.40
2018-07-11T00:08:47.786Z,2.43
2018-07-11T00:11:18.519Z,2.27
2018-07-11T00:13:49.144Z,2.73
2018-07-11T00:16:19.132Z,2.33
2018-07-11T00:18:49.089Z,2.57
2018-07-11T00:21:19.301Z,2.80
2018-07-11T00:23:49.277Z,2.60
2018-07-11T00:26:19.508Z,2.53
2018-07-11T00:28:50.399Z,2.70
2018-07-11T00:31:20.459Z,2.70
2018-07-11T00:33:50.446Z,2.50
2018-07-11T00:36:20.345Z,2.30
2018-07-11T00:38:50.760Z,2.53
2018-07-11T00:41:20.625Z,2.73
2018-07-11T00:43:50.492Z,2.70
2018-07-11T00:46:20.930Z,2.97
2018-07-11T00:48:50.812Z,2.83
2018-07-11T00:51:20.780Z,2.40
2018-07-11T00:53:50.984Z,2.63
2018-07-11T00:56:20.907Z,2.50
2018-07-11T00:59:29.495Z,2.77
2018-07-11T01:02:08.094Z,2.90
2018-07-11T01:04:37.978Z,2.77
2018-07-11T01:07:08.272Z,2.60
2018-07-11T01:09:49.137Z,2.60
2018-07-11T01:12:20.035Z,2.73
2018-07-11T01:14:49.938Z,2.73
2018-07-11T01:17:25.010Z,2.23
2018-07-11T01:19:54.878Z,2.10
2018-07-11T01:22:25.075Z,2.60
2018-07-11T01:24:54.951Z,2.83
2018-07-11T01:27:24.791Z,2.30
2018-07-11T01:29:54.666Z,2.37
2018-07-11T01:32:24.494Z,2.47
2018-07-11T01:34:54.392Z,2.40
2018-07-11T01:37:24.211Z,2.20
2018-07-11T01:39:54.184Z,2.20
2018-07-11T01:42:24.088Z,2.50
2018-07-11T01:44:53.922Z,2.20
2018-07-11T01:47:23.846Z,2.67
2018-07-11T01:49:53.346Z,3.10
2018-07-11T01:52:39.815Z,2.57
2018-07-11T01:55:09.688Z,2.70
2018-07-11T01:57:39.642Z,3.00
2018-07-11T02:00:09.572Z,2.37
2018-07-11T02:02:39.550Z,2.40
2018-07-11T02:05:09.458Z,2.40
2018-07-11T02:07:39.398Z,2.40
2018-07-11T02:10:09.336Z,2.30
2018-07-11T02:12:40.781Z,2.20
2018-07-11T02:15:11.846Z,2.30
2018-07-11T02:17:42.780Z,2.33
2018-07-11T02:20:17.275Z,2.30
2018-07-11T02:22:51.828Z,2.97
2018-07-11T02:25:22.231Z,2.40
2018-07-11T02:27:52.725Z,2.60
2018-07-11T02:30:22.795Z,2.70
2018-07-11T02:32:52.763Z,2.70
2018-07-11T02:35:22.937Z,2.50
2018-07-11T02:37:53.519Z,2.63
2018-07-11T02:40:23.336Z,2.50
2018-07-11T02:42:54.481Z,2.40
2018-07-11T02:45:24.323Z,2.50
2018-07-11T02:47:54.435Z,2.60
2018-07-11T02:50:24.301Z,2.30
2018-07-11T02:52:53.774Z,2.57
2018-07-11T02:55:23.585Z,2.27
2018-07-11T02:57:53.451Z,2.20
2018-07-11T03:00:23.310Z,2.17
2018-07-11T03:02:53.134Z,2.40
2018-07-11T03:08:58.254Z,2.70
2018-07-11T03:11:28.093Z,2.53
2018-07-11T03:13:57.940Z,2.30
2018-07-11T03:16:27.751Z,2.40
2018-07-11T03:18:57.723Z,2.50
2018-07-11T03:21:27.920Z,2.30
2018-07-11T03:23:57.957Z,2.73
2018-07-11T03:26:27.800Z,2.60
2018-07-11T03:28:57.670Z,2.83
2018-07-11T03:31:27.912Z,2.70
2018-07-11T03:33:57.829Z,2.90
2018-07-11T03:36:28.315Z,2.83
2018-07-11T03:38:58.194Z,2.90
2018-07-11T03:41:28.052Z,2.90
2018-07-11T03:43:57.996Z,2.70
2018-07-11T03:46:27.893Z,3.77
2018-07-11T03:48:58.122Z,3.20
2018-07-11T03:51:28.287Z,3.17
2018-07-11T03:53:58.537Z,2.70
2018-07-11T03:56:28.367Z,3.00
2018-07-11T03:58:58.195Z,2.63
2018-07-11T04:01:28.385Z,2.70
2018-07-11T04:03:58.247Z,2.93
2018-07-11T04:06:28.165Z,2.97
2018-07-11T04:08:58.031Z,3.10
2018-07-11T04:11:27.957Z,2.80
2018-07-11T04:13:57.765Z,3.20
2018-07-11T04:16:27.603Z,2.90
2018-07-11T04:18:57.419Z,3.07
2018-07-11T04:21:27.279Z,2.90
2018-07-11T04:23:57.437Z,2.90
2018-07-11T04:26:27.452Z,2.53
2018-07-11T04:28:57.789Z,3.10
2018-07-11T04:31:27.753Z,2.63
2018-07-11T04:33:57.647Z,2.83
2018-07-11T04:36:27.525Z,2.97
2018-07-11T04:38:57.531Z,3.23
2018-07-11T04:41:27.440Z,3.30
2018-07-11T04:43:57.581Z,3.20
2018-07-11T04:46:27.468Z,3.40
2018-07-11T04:48:57.921Z,3.03
2018-07-11T04:51:27.795Z,3.30
2018-07-11T04:53:57.995Z,3.00
2018-07-11T04:56:28.778Z,3.47
2018-07-11T04:58:58.583Z,3.40
2018-07-11T05:01:28.253Z,2.80
2018-07-11T05:03:58.511Z,4.50
2018-07-11T05:06:28.373Z,2.90
2018-07-11T05:08:58.718Z,2.73
2018-07-11T05:11:28.640Z,3.40
2018-07-11T05:13:58.674Z,3.00
2018-07-11T05:16:28.565Z,3.73
2018-07-11T05:18:58.961Z,3.10
2018-07-11T05:21:28.825Z,2.90
2018-07-11T05:23:58.692Z,2.83
2018-07-11T05:26:28.702Z,3.00
2018-07-11T05:28:58.624Z,2.93
2018-07-11T05:31:28.474Z,3.10
2018-07-11T05:33:58.372Z,3.30
2018-07-11T05:36:28.291Z,3.37
2018-07-11T05:38:58.433Z,3.20
2018-07-11T05:41:28.372Z,3.33
2018-07-11T05:43:58.356Z,3.00
2018-07-11T05:46:28.194Z,2.80
2018-07-11T05:48:58.040Z,2.93
2018-07-11T05:51:27.879Z,3.03
2018-07-11T05:53:58.021Z,3.00
2018-07-11T05:56:28.183Z,2.80
2018-07-11T05:58:58.060Z,2.90
2018-07-11T06:01:28.260Z,3.00
2018-07-11T06:03:58.134Z,2.37
2018-07-11T06:06:28.339Z,2.97
2018-07-11T06:08:58.156Z,2.83
2018-07-11T06:11:28.030Z,2.73
2018-07-11T06:13:57.850Z,2.70
2018-07-11T06:16:27.926Z,2.80
2018-07-11T06:25:45.130Z,3.10
2018-07-11T06:29:17.010Z,2.93
2018-07-11T06:31:47.262Z,2.33
2018-07-11T06:34:17.057Z,2.70
2018-07-11T06:36:47.160Z,2.87
2018-07-11T06:39:17.438Z,2.90
2018-07-11T06:41:47.934Z,2.67
2018-07-11T06:44:18.945Z,2.47
2018-07-11T06:46:49.237Z,2.50
2018-07-11T06:49:19.762Z,2.83
2018-07-11T06:51:49.535Z,2.40
2018-07-11T06:54:19.352Z,2.50
2018-07-11T06:56:49.098Z,3.00
2018-07-11T06:59:18.882Z,2.83
2018-07-11T07:01:49.264Z,2.87
2018-07-11T07:04:19.654Z,3.08
2018-07-11T07:06:50.003Z,3.25
2018-07-11T07:09:20.346Z,3.55
2018-07-11T07:11:50.706Z,3.52
2018-07-11T07:14:21.090Z,4.37
2018-07-11T07:16:51.500Z,4.17
2018-07-11T07:19:21.929Z,3.45
2018-07-11T07:21:52.364Z,3.42
2018-07-11T07:24:23.247Z,3.70
2018-07-11T07:26:53.590Z,3.80
2018-07-11T07:29:23.977Z,4.10
2018-07-11T07:31:54.052Z,5.40
2018-07-11T07:34:24.736Z,6.17
2018-07-11T07:36:55.105Z,5.90
2018-07-11T07:39:25.615Z,3.50
2018-07-11T07:41:56.024Z,3.33
2018-07-11T07:44:26.388Z,4.22
2018-07-11T07:46:59.855Z,4.08
2018-07-11T07:49:32.099Z,3.40
2018-07-11T07:52:02.471Z,3.45
2018-07-11T07:54:32.908Z,2.55
2018-07-11T07:57:03.393Z,2.67
2018-07-11T07:59:33.867Z,2.50
2018-07-11T08:02:03.892Z,2.77
2018-07-11T08:04:33.721Z,2.50
2018-07-11T08:07:03.660Z,2.10
2018-07-11T08:09:33.556Z,2.23
2018-07-11T08:12:03.475Z,2.23
2018-07-11T08:14:34.200Z,2.40
2018-07-11T08:17:04.629Z,2.20
2018-07-11T08:19:35.061Z,2.35
2018-07-11T08:22:22.529Z,2.25
2018-07-11T08:25:09.577Z,2.22
2018-07-11T08:28:00.673Z,2.30
2018-07-11T08:31:57.796Z,2.65
2018-07-11T08:34:46.731Z,3.02
2018-07-11T08:40:35.104Z,2.67
2018-07-11T08:43:58.992Z,2.65
2018-07-11T08:48:54.777Z,2.50
2018-07-11T08:54:20.727Z,2.30
2018-07-11T08:57:04.131Z,2.37
2018-07-11T09:01:54.215Z,2.90
2018-07-11T09:04:55.166Z,3.00
2018-07-11T09:07:49.446Z,3.30
2018-07-11T09:12:54.919Z,2.90
2018-07-11T09:15:45.615Z,3.00
2018-07-11T09:19:05.938Z,3.00
2018-07-11T09:23:02.254Z,3.33
2018-07-11T09:25:32.680Z,2.67
2018-07-11T09:28:03.041Z,2.55
2018-07-11T09:30:33.482Z,2.50
2018-07-11T09:33:04.123Z,2.98
2018-07-11T09:35:34.591Z,2.50
2018-07-11T09:38:05.309Z,2.25
2018-07-11T09:40:35.731Z,2.40
2018-07-11T09:43:06.289Z,2.10
2018-07-11T09:45:36.769Z,2.20
2018-07-11T09:48:07.903Z,2.25
2018-07-11T09:50:38.669Z,2.60
2018-07-11T09:53:09.238Z,2.67
2018-07-11T09:55:39.964Z,2.50
2018-07-11T09:58:10.787Z,2.42
2018-07-11T10:00:46.517Z,2.45
2018-07-11T10:03:17.029Z,2.40
2018-07-11T10:05:47.503Z,2.12
2018-07-11T10:08:18.507Z,2.37
2018-07-11T10:10:48.933Z,2.37
2018-07-11T10:13:19.239Z,2.37
2018-07-11T10:15:49.617Z,2.35
2018-07-11T10:18:19.959Z,2.37
2018-07-11T10:20:50.361Z,1.90
2018-07-11T10:23:21.235Z,2.60
2018-07-11T10:25:51.905Z,2.50
2018-07-11T10:28:22.269Z,2.40
2018-07-11T10:30:52.611Z,2.30
2018-07-11T10:33:22.981Z,2.47
2018-07-11T10:35:53.808Z,2.27
2018-07-11T10:38:24.158Z,2.58
2018-07-11T10:40:54.899Z,2.25
2018-07-11T10:43:25.266Z,2.00
2018-07-11T10:45:55.693Z,2.30
2018-07-11T10:48:26.062Z,2.67
2018-07-11T10:50:56.831Z,2.30
2018-07-11T10:53:27.525Z,2.20
2018-07-11T10:55:58.276Z,2.10
2018-07-11T10:58:28.726Z,2.17
2018-07-11T11:01:05.695Z,2.20
2018-07-11T11:03:30.882Z,2.30
2018-07-11T11:06:01.249Z,2.70
2018-07-11T11:09:18.771Z,2.42
2018-07-11T11:11:49.385Z,2.60
2018-07-11T11:14:19.847Z,2.55
2018-07-11T11:16:50.307Z,2.90
2018-07-11T11:19:21.323Z,2.27
2018-07-11T11:21:51.824Z,2.67
2018-07-11T11:24:22.285Z,2.62
2018-07-11T11:26:52.676Z,2.45
2018-07-11T11:29:23.076Z,2.50
2018-07-11T11:31:53.872Z,2.62
2018-07-11T11:34:24.864Z,2.75
2018-07-11T11:36:55.685Z,2.77
2018-07-11T11:39:26.073Z,2.58
2018-07-11T11:41:56.579Z,2.50
2018-07-11T11:44:27.419Z,2.80
2018-07-11T11:47:01.801Z,2.35
2018-07-11T11:49:32.638Z,3.15
2018-07-11T11:52:03.044Z,2.52
2018-07-11T11:54:34.068Z,2.50
2018-07-11T11:57:04.456Z,2.70
2018-07-11T11:59:34.847Z,2.45
2018-07-11T12:02:05.621Z,2.65
2018-07-11T12:04:36.098Z,2.50
2018-07-11T12:07:06.669Z,2.85
2018-07-11T12:09:37.174Z,3.08
2018-07-11T12:12:07.579Z,2.90
2018-07-11T12:14:38.273Z,2.72
2018-07-11T12:17:08.689Z,2.70
2018-07-11T12:19:39.195Z,2.30
2018-07-11T12:22:10.041Z,2.58
2018-07-11T12:24:40.831Z,2.70
2018-07-11T12:59:22.022Z,2.50
2018-07-11T13:01:52.526Z,3.20
2018-07-11T13:04:24.629Z,2.90
2018-07-11T13:06:55.060Z,2.37
2018-07-11T13:09:25.491Z,2.35
2018-07-11T13:11:56.027Z,2.85
2018-07-11T13:14:26.777Z,2.22
2018-07-11T13:16:57.257Z,2.12
2018-07-11T13:19:27.843Z,2.30
2018-07-11T16:50:55.193Z,2.25
2018-07-11T16:53:25.908Z,2.00
2018-07-11T16:55:58.018Z,2.30
2018-07-11T16:58:35.231Z,2.20
2018-07-11T17:01:06.026Z,2.35
2018-07-11T17:03:40.247Z,2.20
2018-07-11T17:06:11.220Z,2.80
2018-07-11T17:08:50.827Z,2.35
2018-07-11T17:11:28.087Z,2.40
2018-07-11T17:14:00.962Z,2.20
2018-07-11T17:17:04.466Z,2.55
2018-07-11T17:20:11.815Z,2.80
2018-07-11T17:22:54.371Z,2.30
2018-07-11T17:25:29.360Z,3.00
2018-07-11T17:28:03.524Z,2.62
2018-07-11T17:31:17.988Z,3.05
2018-07-11T17:33:48.453Z,2.62
2018-07-11T17:36:20.099Z,2.95
2018-07-11T17:38:50.500Z,3.20
2018-07-11T17:41:21.310Z,2.80
2018-07-11T17:43:54.730Z,3.30
2018-07-11T17:46:25.104Z,3.17
2018-07-11T17:49:14.123Z,3.22
2018-07-11T17:51:53.601Z,2.80
2018-07-11T17:55:35.918Z,3.30
2018-07-11T17:58:09.190Z,3.27
2018-07-11T18:00:50.076Z,2.90
2018-07-11T18:05:39.745Z,3.37
2018-07-11T18:08:12.045Z,3.15
2018-07-11T18:10:50.181Z,2.92
2018-07-11T18:13:32.763Z,2.98
2018-07-11T18:16:20.615Z,3.45
2018-07-11T18:19:10.612Z,3.20
2018-07-11T18:21:57.869Z,3.30
2018-07-11T18:24:45.264Z,3.60
2018-07-11T18:27:32.105Z,3.30
2018-07-11T18:31:19.487Z,2.92
2018-07-11T18:34:31.299Z,3.30
2018-07-11T18:39:29.504Z,2.98
2018-07-11T18:42:19.345Z,3.03
2018-07-11T18:45:08.342Z,2.83
2018-07-11T18:52:09.855Z,3.05
2018-07-11T18:57:11.349Z,3.53
2018-07-11T18:59:55.515Z,3.23
2018-07-11T19:02:54.667Z,3.07
2018-07-11T19:05:49.749Z,3.53
2018-07-11T19:09:06.997Z,3.50
2018-07-11T19:12:21.419Z,3.27
2018-07-11T19:15:14.188Z,3.67
2018-07-11T19:18:04.388Z,3.47
2018-07-11T19:20:45.415Z,3.10
2018-07-11T19:23:35.277Z,3.17
2018-07-11T19:27:33.363Z,3.83
2018-07-11T19:30:12.036Z,3.47
2018-07-11T19:33:58.131Z,3.07
2018-07-11T19:38:17.456Z,3.50
2018-07-11T19:40:54.513Z,3.30
2018-07-11T19:44:45.511Z,3.50
2018-07-11T19:48:05.755Z,3.37
2018-07-11T19:50:55.269Z,3.47
2018-07-11T19:53:55.074Z,3.43
2018-07-11T19:56:41.157Z,3.43
2018-07-11T19:59:11.076Z,3.53
2018-07-11T20:01:41.198Z,4.03
2018-07-11T20:04:13.015Z,3.73
2018-07-11T20:06:43.873Z,3.83
2018-07-11T20:09:14.339Z,3.77
2018-07-11T20:11:44.163Z,3.67
2018-07-11T20:14:14.719Z,3.80
2018-07-11T20:16:46.095Z,3.50
2018-07-11T20:19:16.367Z,3.60
2018-07-11T20:21:46.260Z,3.60
2018-07-11T20:24:16.135Z,3.83
2018-07-11T20:26:46.354Z,3.63
2018-07-11T20:29:16.203Z,3.57
2018-07-11T20:31:46.148Z,3.53
2018-07-11T20:34:16.367Z,3.70
2018-07-11T20:36:46.232Z,4.03
2018-07-11T20:39:16.264Z,2.77
2018-07-11T20:41:46.227Z,3.10
2018-07-11T20:44:16.139Z,3.03
2018-07-11T20:46:46.066Z,3.07
2018-07-11T20:49:47.927Z,2.90
2018-07-11T20:52:17.697Z,3.20
2018-07-11T20:54:48.092Z,3.00
2018-07-11T20:57:18.001Z,3.43
2018-07-11T21:01:02.538Z,3.23
2018-07-11T21:05:52.732Z,3.60
2018-07-11T21:08:52.721Z,3.33
2018-07-11T21:14:48.596Z,3.40
2018-07-11T21:19:39.225Z,3.10
2018-07-11T21:22:09.437Z,3.20
2018-07-11T21:24:39.636Z,3.37
2018-07-11T21:27:09.485Z,3.17
2018-07-11T21:29:39.438Z,3.07
2018-07-11T21:32:09.505Z,3.13
2018-07-11T21:34:39.270Z,3.20
2018-07-11T21:37:09.554Z,2.93
2018-07-11T21:39:40.046Z,3.60
2018-07-11T21:42:09.929Z,3.40
2018-07-11T21:44:39.805Z,3.10
2018-07-11T21:47:09.686Z,3.07
2018-07-11T21:49:39.629Z,2.80
2018-07-11T21:52:09.535Z,3.00
2018-07-11T21:54:39.736Z,3.00
2018-07-11T21:57:09.763Z,2.80
2018-07-11T21:59:39.449Z,2.97
2018-07-11T22:02:09.682Z,2.60
2018-07-11T22:04:39.666Z,3.00
2018-07-11T22:07:09.709Z,2.80
2018-07-11T22:09:39.604Z,3.23
2018-07-11T22:12:09.486Z,3.90
2018-07-11T22:14:41.328Z,3.97
2018-07-11T22:17:27.421Z,4.30
2018-07-11T22:19:55.593Z,4.20
2018-07-11T22:22:23.520Z,3.80
2018-07-11T22:24:51.458Z,4.17
2018-07-11T22:27:19.383Z,4.17
2018-07-11T22:33:23.887Z,5.10
2018-07-11T22:35:52.003Z,4.67
2018-07-11T22:38:19.955Z,4.70
2018-07-11T22:40:47.930Z,4.93
2018-07-11T22:43:15.883Z,4.53
2018-07-11T22:45:43.847Z,4.67
2018-07-11T22:48:11.804Z,5.07
2018-07-11T22:50:40.624Z,5.03
2018-07-11T22:53:08.626Z,4.23
2018-07-11T22:55:36.579Z,3.70
2018-07-11T22:58:04.527Z,4.23
2018-07-11T23:00:32.468Z,3.60
2018-07-11T23:03:00.431Z,3.43
2018-07-11T23:05:28.346Z,3.83
2018-07-11T23:07:56.305Z,4.13
2018-07-11T23:10:24.255Z,3.97
2018-07-11T23:12:52.499Z,4.13
2018-07-11T23:15:20.437Z,3.43
2018-07-11T23:17:50.030Z,3.87
2018-07-11T23:20:17.965Z,4.03
2018-07-11T23:22:46.005Z,4.03
2018-07-11T23:25:13.960Z,4.03
2018-07-11T23:27:41.908Z,4.07
2018-07-11T23:30:09.854Z,4.27
2018-07-11T23:32:37.793Z,3.90
2018-07-11T23:35:06.092Z,3.60
2018-07-11T23:37:34.038Z,3.73
2018-07-11T23:40:01.963Z,3.93
2018-07-11T23:42:29.906Z,3.83
2018-07-11T23:44:57.839Z,3.93
2018-07-11T23:47:25.957Z,4.03
2018-07-11T23:49:53.902Z,4.50
2018-07-11T23:52:21.858Z,3.80
2018-07-11T23:54:49.795Z,4.43
2018-07-11T23:57:17.747Z,4.00
2018-07-11T23:59:45.689Z,4.60
